sensor_id;sensor_type;location;lat;lon;timestamp;P1;durP1;ratioP1;P2;durP2;ratioP2
53881;SDS011;39794;55.782;37.452;2023-12-20T00:02:26;1.35;;;1.05;;
53881;SDS011;39794;55.782;37.452;2023-12-20T00:04:55;1.08;;;0.77;;
53881;SDS011;39794;55.782;37.452;2023-12-20T00:07:25;1.35;;;1.00;;
53881;SDS011;39794;55.782;37.452;2023-12-20T00:09:53;0.95;;;0.85;;
53881;SDS011;39794;55.782;37.452;2023-12-20T00:12:22;1.58;;;0.93;;
53881;SDS011;39794;55.782;37.452;2023-12-20T00:14:50;2.53;;;1.00;;
53881;SDS011;39794;55.782;37.452;2023-12-20T00:17:19;0.80;;;0.70;;
53881;SDS011;39794;55.782;37.452;2023-12-20T00:19:47;2.25;;;0.70;;
53881;SDS011;39794;55.782;37.452;2023-12-20T00:22:16;2.03;;;0.90;;
53881;SDS011;39794;55.782;37.452;2023-12-20T00:24:46;1.63;;;0.85;;
53881;SDS011;39794;55.782;37.452;2023-12-20T00:27:14;1.13;;;0.60;;
53881;SDS011;39794;55.782;37.452;2023-12-20T00:29:43;1.42;;;0.90;;
53881;SDS011;39794;55.782;37.452;2023-12-20T00:32:14;1.40;;;0.80;;
53881;SDS011;39794;55.782;37.452;2023-12-20T00:34:43;1.25;;;0.80;;
53881;SDS011;39794;55.782;37.452;2023-12-20T00:37:12;0.82;;;0.75;;
53881;SDS011;39794;55.782;37.452;2023-12-20T00:39:41;1.70;;;1.10;;
53881;SDS011;39794;55.782;37.452;2023-12-20T00:42:11;1.30;;;1.20;;
53881;SDS011;39794;55.782;37.452;2023-12-20T00:44:39;2.03;;;1.17;;
53881;SDS011;39794;55.782;37.452;2023-12-20T00:47:25;1.42;;;1.00;;
53881;SDS011;39794;55.782;37.452;2023-12-20T00:49:54;2.47;;;1.35;;
53881;SDS011;39794;55.782;37.452;2023-12-20T00:52:22;3.30;;;1.30;;
53881;SDS011;39794;55.782;37.452;2023-12-20T00:54:51;1.30;;;1.10;;
53881;SDS011;39794;55.782;37.452;2023-12-20T00:57:21;2.58;;;1.30;;
53881;SDS011;39794;55.782;37.452;2023-12-20T00:59:49;1.92;;;1.23;;
53881;SDS011;39794;55.782;37.452;2023-12-20T01:02:17;3.95;;;1.73;;
53881;SDS011;39794;55.782;37.452;2023-12-20T01:04:46;2.17;;;1.73;;
53881;SDS011;39794;55.782;37.452;2023-12-20T01:07:15;2.13;;;1.30;;
53881;SDS011;39794;55.782;37.452;2023-12-20T01:09:44;1.58;;;1.30;;
53881;SDS011;39794;55.782;37.452;2023-12-20T01:12:12;3.30;;;1.67;;
53881;SDS011;39794;55.782;37.452;2023-12-20T01:14:42;1.95;;;1.23;;
53881;SDS011;39794;55.782;37.452;2023-12-20T01:17:10;4.18;;;1.40;;
53881;SDS011;39794;55.782;37.452;2023-12-20T01:19:39;2.00;;;1.30;;
53881;SDS011;39794;55.782;37.452;2023-12-20T01:22:08;1.80;;;1.33;;
53881;SDS011;39794;55.782;37.452;2023-12-20T01:24:37;4.32;;;1.50;;
53881;SDS011;39794;55.782;37.452;2023-12-20T01:27:05;1.42;;;1.20;;
53881;SDS011;39794;55.782;37.452;2023-12-20T01:29:34;1.40;;;1.23;;
53881;SDS011;39794;55.782;37.452;2023-12-20T01:32:04;2.53;;;1.13;;
53881;SDS011;39794;55.782;37.452;2023-12-20T01:34:33;1.10;;;1.00;;
53881;SDS011;39794;55.782;37.452;2023-12-20T01:37:03;2.38;;;1.13;;
53881;SDS011;39794;55.782;37.452;2023-12-20T01:39:32;1.67;;;1.25;;
53881;SDS011;39794;55.782;37.452;2023-12-20T01:42:00;1.83;;;1.17;;
53881;SDS011;39794;55.782;37.452;2023-12-20T01:44:29;3.75;;;0.90;;
53881;SDS011;39794;55.782;37.452;2023-12-20T01:46:57;5.15;;;2.25;;
53881;SDS011;39794;55.782;37.452;2023-12-20T01:49:27;3.22;;;1.20;;
53881;SDS011;39794;55.782;37.452;2023-12-20T01:51:56;1.60;;;0.85;;
53881;SDS011;39794;55.782;37.452;2023-12-20T01:54:24;2.05;;;0.90;;
53881;SDS011;39794;55.782;37.452;2023-12-20T01:56:53;1.65;;;1.00;;
53881;SDS011;39794;55.782;37.452;2023-12-20T01:59:21;2.03;;;1.00;;
53881;SDS011;39794;55.782;37.452;2023-12-20T02:01:50;1.83;;;1.02;;
53881;SDS011;39794;55.782;37.452;2023-12-20T02:04:18;1.67;;;0.73;;
53881;SDS011;39794;55.782;37.452;2023-12-20T02:06:49;2.47;;;0.90;;
53881;SDS011;39794;55.782;37.452;2023-12-20T02:09:20;2.30;;;0.80;;
53881;SDS011;39794;55.782;37.452;2023-12-20T02:11:50;2.38;;;0.90;;
53881;SDS011;39794;55.782;37.452;2023-12-20T02:14:18;1.65;;;0.70;;
53881;SDS011;39794;55.782;37.452;2023-12-20T02:16:47;4.75;;;0.80;;
53881;SDS011;39794;55.782;37.452;2023-12-20T02:19:15;1.55;;;1.00;;
53881;SDS011;39794;55.782;37.452;2023-12-20T02:21:47;2.05;;;0.77;;
53881;SDS011;39794;55.782;37.452;2023-12-20T02:24:16;1.05;;;0.52;;
53881;SDS011;39794;55.782;37.452;2023-12-20T02:26:45;1.40;;;0.70;;
53881;SDS011;39794;55.782;37.452;2023-12-20T02:29:14;1.35;;;0.40;;
53881;SDS011;39794;55.782;37.452;2023-12-20T02:31:42;3.00;;;0.70;;
53881;SDS011;39794;55.782;37.452;2023-12-20T02:34:10;1.08;;;0.50;;
53881;SDS011;39794;55.782;37.452;2023-12-20T02:36:39;1.80;;;0.60;;
53881;SDS011;39794;55.782;37.452;2023-12-20T02:39:09;1.00;;;0.50;;
53881;SDS011;39794;55.782;37.452;2023-12-20T02:41:38;0.65;;;0.60;;
53881;SDS011;39794;55.782;37.452;2023-12-20T02:44:07;2.55;;;0.60;;
53881;SDS011;39794;55.782;37.452;2023-12-20T02:46:35;1.42;;;0.65;;
53881;SDS011;39794;55.782;37.452;2023-12-20T02:49:04;5.05;;;0.70;;
53881;SDS011;39794;55.782;37.452;2023-12-20T02:51:33;2.22;;;0.70;;
53881;SDS011;39794;55.782;37.452;2023-12-20T02:54:04;2.67;;;0.70;;
53881;SDS011;39794;55.782;37.452;2023-12-20T02:56:34;4.43;;;0.77;;
53881;SDS011;39794;55.782;37.452;2023-12-20T02:59:03;2.00;;;0.80;;
53881;SDS011;39794;55.782;37.452;2023-12-20T03:01:32;1.67;;;0.90;;
53881;SDS011;39794;55.782;37.452;2023-12-20T03:04:01;4.20;;;0.98;;
53881;SDS011;39794;55.782;37.452;2023-12-20T03:06:29;1.10;;;1.00;;
53881;SDS011;39794;55.782;37.452;2023-12-20T03:08:59;3.35;;;1.10;;
53881;SDS011;39794;55.782;37.452;2023-12-20T03:11:27;2.85;;;1.00;;
53881;SDS011;39794;55.782;37.452;2023-12-20T03:13:57;1.25;;;1.15;;
53881;SDS011;39794;55.782;37.452;2023-12-20T03:16:26;1.10;;;1.00;;
53881;SDS011;39794;55.782;37.452;2023-12-20T03:18:54;1.95;;;1.30;;
53881;SDS011;39794;55.782;37.452;2023-12-20T03:21:23;1.67;;;0.90;;
53881;SDS011;39794;55.782;37.452;2023-12-20T03:23:51;2.67;;;0.88;;
53881;SDS011;39794;55.782;37.452;2023-12-20T03:26:20;0.85;;;0.85;;
53881;SDS011;39794;55.782;37.452;2023-12-20T03:28:49;1.52;;;0.90;;
53881;SDS011;39794;55.782;37.452;2023-12-20T03:31:20;1.52;;;0.80;;
53881;SDS011;39794;55.782;37.452;2023-12-20T03:33:49;2.05;;;0.90;;
53881;SDS011;39794;55.782;37.452;2023-12-20T03:36:17;1.05;;;0.90;;
53881;SDS011;39794;55.782;37.452;2023-12-20T03:38:46;1.17;;;1.05;;
53881;SDS011;39794;55.782;37.452;2023-12-20T03:41:15;1.30;;;1.13;;
53881;SDS011;39794;55.782;37.452;2023-12-20T03:43:43;1.33;;;1.00;;
53881;SDS011;39794;55.782;37.452;2023-12-20T03:46:12;1.85;;;1.20;;
53881;SDS011;39794;55.782;37.452;2023-12-20T03:48:42;1.65;;;1.10;;
53881;SDS011;39794;55.782;37.452;2023-12-20T03:51:10;1.33;;;1.13;;
53881;SDS011;39794;55.782;37.452;2023-12-20T03:53:39;1.50;;;1.23;;
53881;SDS011;39794;55.782;37.452;2023-12-20T03:56:08;1.60;;;1.08;;
53881;SDS011;39794;55.782;37.452;2023-12-20T03:58:37;3.35;;;1.13;;
53881;SDS011;39794;55.782;37.452;2023-12-20T04:01:08;1.75;;;1.20;;
53881;SDS011;39794;55.782;37.452;2023-12-20T04:03:38;3.92;;;1.30;;
53881;SDS011;39794;55.782;37.452;2023-12-20T04:06:08;3.45;;;1.55;;
53881;SDS011;39794;55.782;37.452;2023-12-20T04:08:37;3.22;;;1.67;;
53881;SDS011;39794;55.782;37.452;2023-12-20T04:11:06;5.03;;;1.60;;
53881;SDS011;39794;55.782;37.452;2023-12-20T04:13:36;2.42;;;1.42;;
53881;SDS011;39794;55.782;37.452;2023-12-20T04:16:04;5.13;;;1.60;;
53881;SDS011;39794;55.782;37.452;2023-12-20T04:18:33;4.10;;;2.30;;
53881;SDS011;39794;55.782;37.452;2023-12-20T04:21:03;5.15;;;2.30;;
53881;SDS011;39794;55.782;37.452;2023-12-20T04:23:33;5.68;;;1.90;;
53881;SDS011;39794;55.782;37.452;2023-12-20T04:26:05;5.15;;;2.00;;
53881;SDS011;39794;55.782;37.452;2023-12-20T04:28:34;2.40;;;1.80;;
53881;SDS011;39794;55.782;37.452;2023-12-20T04:31:02;3.38;;;2.00;;
53881;SDS011;39794;55.782;37.452;2023-12-20T04:33:31;2.70;;;1.80;;
53881;SDS011;39794;55.782;37.452;2023-12-20T04:36:00;2.38;;;1.23;;
53881;SDS011;39794;55.782;37.452;2023-12-20T04:38:28;3.88;;;1.35;;
53881;SDS011;39794;55.782;37.452;2023-12-20T04:40:58;3.35;;;1.67;;
53881;SDS011;39794;55.782;37.452;2023-12-20T04:43:26;3.80;;;1.80;;
53881;SDS011;39794;55.782;37.452;2023-12-20T04:45:56;2.53;;;1.92;;
53881;SDS011;39794;55.782;37.452;2023-12-20T04:48:25;3.80;;;2.00;;
53881;SDS011;39794;55.782;37.452;2023-12-20T04:50:53;3.67;;;2.50;;
53881;SDS011;39794;55.782;37.452;2023-12-20T04:53:21;2.53;;;2.08;;
53881;SDS011;39794;55.782;37.452;2023-12-20T04:55:50;3.60;;;1.98;;
53881;SDS011;39794;55.782;37.452;2023-12-20T04:58:20;4.20;;;2.20;;
53881;SDS011;39794;55.782;37.452;2023-12-20T05:00:48;2.92;;;2.03;;
53881;SDS011;39794;55.782;37.452;2023-12-20T05:03:17;3.88;;;2.00;;
53881;SDS011;39794;55.782;37.452;2023-12-20T05:05:45;5.28;;;2.72;;
53881;SDS011;39794;55.782;37.452;2023-12-20T05:08:14;4.35;;;2.45;;
53881;SDS011;39794;55.782;37.452;2023-12-20T05:10:42;7.53;;;2.53;;
53881;SDS011;39794;55.782;37.452;2023-12-20T05:13:11;5.32;;;2.30;;
53881;SDS011;39794;55.782;37.452;2023-12-20T05:15:41;4.22;;;2.00;;
53881;SDS011;39794;55.782;37.452;2023-12-20T05:18:10;3.70;;;2.15;;
53881;SDS011;39794;55.782;37.452;2023-12-20T05:20:39;4.53;;;2.00;;
53881;SDS011;39794;55.782;37.452;2023-12-20T05:23:07;4.07;;;1.73;;
53881;SDS011;39794;55.782;37.452;2023-12-20T05:25:36;3.28;;;1.65;;
53881;SDS011;39794;55.782;37.452;2023-12-20T05:28:05;2.70;;;1.67;;
53881;SDS011;39794;55.782;37.452;2023-12-20T05:30:33;2.65;;;1.60;;
53881;SDS011;39794;55.782;37.452;2023-12-20T05:33:03;2.53;;;1.67;;
53881;SDS011;39794;55.782;37.452;2023-12-20T05:35:32;5.07;;;2.10;;
53881;SDS011;39794;55.782;37.452;2023-12-20T05:38:01;2.30;;;1.40;;
53881;SDS011;39794;55.782;37.452;2023-12-20T05:40:29;3.10;;;1.88;;
53881;SDS011;39794;55.782;37.452;2023-12-20T05:42:57;5.60;;;1.95;;
53881;SDS011;39794;55.782;37.452;2023-12-20T05:45:26;3.45;;;1.70;;
53881;SDS011;39794;55.782;37.452;2023-12-20T05:47:54;2.88;;;1.80;;
53881;SDS011;39794;55.782;37.452;2023-12-20T05:50:24;2.20;;;1.50;;
53881;SDS011;39794;55.782;37.452;2023-12-20T05:52:53;2.63;;;1.92;;
53881;SDS011;39794;55.782;37.452;2023-12-20T05:55:21;4.55;;;1.55;;
53881;SDS011;39794;55.782;37.452;2023-12-20T05:57:50;3.00;;;1.88;;
53881;SDS011;39794;55.782;37.452;2023-12-20T06:00:19;4.43;;;2.33;;
53881;SDS011;39794;55.782;37.452;2023-12-20T06:02:47;4.55;;;1.98;;
53881;SDS011;39794;55.782;37.452;2023-12-20T06:05:16;7.72;;;2.85;;
53881;SDS011;39794;55.782;37.452;2023-12-20T06:07:46;3.40;;;2.40;;
53881;SDS011;39794;55.782;37.452;2023-12-20T06:10:15;2.95;;;2.08;;
53881;SDS011;39794;55.782;37.452;2023-12-20T06:12:45;3.30;;;1.92;;
53881;SDS011;39794;55.782;37.452;2023-12-20T06:15:17;3.22;;;1.95;;
53881;SDS011;39794;55.782;37.452;2023-12-20T06:17:45;4.28;;;1.85;;
53881;SDS011;39794;55.782;37.452;2023-12-20T06:20:15;5.45;;;2.30;;
53881;SDS011;39794;55.782;37.452;2023-12-20T06:22:43;4.78;;;2.75;;
53881;SDS011;39794;55.782;37.452;2023-12-20T06:25:13;4.82;;;2.20;;
53881;SDS011;39794;55.782;37.452;2023-12-20T06:27:42;3.00;;;2.20;;
53881;SDS011;39794;55.782;37.452;2023-12-20T06:30:11;5.95;;;2.38;;
53881;SDS011;39794;55.782;37.452;2023-12-20T06:32:40;4.95;;;2.08;;
53881;SDS011;39794;55.782;37.452;2023-12-20T06:35:09;4.55;;;2.35;;
53881;SDS011;39794;55.782;37.452;2023-12-20T06:37:38;3.25;;;1.90;;
53881;SDS011;39794;55.782;37.452;2023-12-20T06:40:09;5.85;;;2.22;;
53881;SDS011;39794;55.782;37.452;2023-12-20T06:42:46;6.32;;;2.03;;
53881;SDS011;39794;55.782;37.452;2023-12-20T06:45:31;7.20;;;2.10;;
53881;SDS011;39794;55.782;37.452;2023-12-20T06:47:59;2.60;;;1.70;;
53881;SDS011;39794;55.782;37.452;2023-12-20T06:50:28;3.60;;;2.20;;
53881;SDS011;39794;55.782;37.452;2023-12-20T06:52:56;7.55;;;2.63;;
53881;SDS011;39794;55.782;37.452;2023-12-20T06:55:25;2.42;;;1.52;;
53881;SDS011;39794;55.782;37.452;2023-12-20T06:57:54;3.45;;;1.80;;
53881;SDS011;39794;55.782;37.452;2023-12-20T07:00:23;3.88;;;1.85;;
53881;SDS011;39794;55.782;37.452;2023-12-20T07:02:52;3.28;;;1.80;;
53881;SDS011;39794;55.782;37.452;2023-12-20T07:05:20;3.70;;;2.03;;
53881;SDS011;39794;55.782;37.452;2023-12-20T07:07:49;3.38;;;1.88;;
53881;SDS011;39794;55.782;37.452;2023-12-20T07:10:19;3.60;;;1.77;;
53881;SDS011;39794;55.782;37.452;2023-12-20T07:12:48;4.38;;;1.73;;
53881;SDS011;39794;55.782;37.452;2023-12-20T07:15:19;3.30;;;2.15;;
53881;SDS011;39794;55.782;37.452;2023-12-20T07:17:47;3.42;;;1.80;;
53881;SDS011;39794;55.782;37.452;2023-12-20T07:20:16;3.08;;;1.70;;
53881;SDS011;39794;55.782;37.452;2023-12-20T07:22:45;2.80;;;1.60;;
53881;SDS011;39794;55.782;37.452;2023-12-20T07:25:14;5.47;;;1.70;;
53881;SDS011;39794;55.782;37.452;2023-12-20T07:27:44;2.03;;;1.50;;
53881;SDS011;39794;55.782;37.452;2023-12-20T07:30:13;4.55;;;1.88;;
53881;SDS011;39794;55.782;37.452;2023-12-20T07:32:43;3.78;;;2.10;;
53881;SDS011;39794;55.782;37.452;2023-12-20T07:35:12;4.30;;;1.80;;
53881;SDS011;39794;55.782;37.452;2023-12-20T07:37:40;5.68;;;1.65;;
53881;SDS011;39794;55.782;37.452;2023-12-20T07:40:10;5.38;;;2.10;;
53881;SDS011;39794;55.782;37.452;2023-12-20T07:42:39;1.55;;;1.20;;
53881;SDS011;39794;55.782;37.452;2023-12-20T07:45:08;7.28;;;1.67;;
53881;SDS011;39794;55.782;37.452;2023-12-20T07:47:38;2.55;;;1.30;;
53881;SDS011;39794;55.782;37.452;2023-12-20T07:50:09;4.65;;;1.30;;
53881;SDS011;39794;55.782;37.452;2023-12-20T07:52:38;3.80;;;1.75;;
53881;SDS011;39794;55.782;37.452;2023-12-20T07:55:07;2.25;;;1.27;;
53881;SDS011;39794;55.782;37.452;2023-12-20T07:57:35;2.10;;;1.58;;
53881;SDS011;39794;55.782;37.452;2023-12-20T08:00:05;2.15;;;1.30;;
53881;SDS011;39794;55.782;37.452;2023-12-20T08:02:34;2.20;;;1.02;;
53881;SDS011;39794;55.782;37.452;2023-12-20T08:05:02;4.35;;;1.30;;
53881;SDS011;39794;55.782;37.452;2023-12-20T08:07:33;2.05;;;1.00;;
53881;SDS011;39794;55.782;37.452;2023-12-20T08:10:01;4.13;;;1.30;;
53881;SDS011;39794;55.782;37.452;2023-12-20T08:12:30;3.90;;;1.30;;
53881;SDS011;39794;55.782;37.452;2023-12-20T08:14:59;2.20;;;1.40;;
53881;SDS011;39794;55.782;37.452;2023-12-20T08:17:30;2.22;;;1.40;;
53881;SDS011;39794;55.782;37.452;2023-12-20T08:19:58;2.88;;;2.00;;
53881;SDS011;39794;55.782;37.452;2023-12-20T08:22:29;3.67;;;1.20;;
53881;SDS011;39794;55.782;37.452;2023-12-20T08:24:59;5.32;;;1.70;;
53881;SDS011;39794;55.782;37.452;2023-12-20T08:27:29;2.88;;;1.08;;
53881;SDS011;39794;55.782;37.452;2023-12-20T08:29:58;2.75;;;1.20;;
53881;SDS011;39794;55.782;37.452;2023-12-20T08:32:29;3.28;;;1.20;;
53881;SDS011;39794;55.782;37.452;2023-12-20T08:34:59;3.60;;;1.13;;
53881;SDS011;39794;55.782;37.452;2023-12-20T08:37:29;4.22;;;2.30;;
53881;SDS011;39794;55.782;37.452;2023-12-20T08:39:59;3.30;;;1.75;;
53881;SDS011;39794;55.782;37.452;2023-12-20T08:42:29;3.13;;;1.17;;
53881;SDS011;39794;55.782;37.452;2023-12-20T08:44:58;3.13;;;1.50;;
53881;SDS011;39794;55.782;37.452;2023-12-20T08:47:29;1.98;;;1.27;;
53881;SDS011;39794;55.782;37.452;2023-12-20T08:49:58;1.92;;;1.35;;
53881;SDS011;39794;55.782;37.452;2023-12-20T08:52:30;2.40;;;1.30;;
53881;SDS011;39794;55.782;37.452;2023-12-20T08:55:00;2.95;;;1.88;;
53881;SDS011;39794;55.782;37.452;2023-12-20T08:57:29;4.13;;;2.15;;
53881;SDS011;39794;55.782;37.452;2023-12-20T08:59:58;1.92;;;1.45;;
53881;SDS011;39794;55.782;37.452;2023-12-20T09:02:31;3.88;;;1.88;;
53881;SDS011;39794;55.782;37.452;2023-12-20T09:05:00;3.22;;;1.40;;
53881;SDS011;39794;55.782;37.452;2023-12-20T09:07:30;3.70;;;1.50;;
53881;SDS011;39794;55.782;37.452;2023-12-20T09:10:01;3.30;;;1.70;;
53881;SDS011;39794;55.782;37.452;2023-12-20T09:12:31;8.63;;;1.70;;
53881;SDS011;39794;55.782;37.452;2023-12-20T09:14:59;5.18;;;2.10;;
53881;SDS011;39794;55.782;37.452;2023-12-20T09:17:31;2.45;;;1.52;;
53881;SDS011;39794;55.782;37.452;2023-12-20T09:20:00;2.92;;;1.60;;
53881;SDS011;39794;55.782;37.452;2023-12-20T09:22:29;4.60;;;1.42;;
53881;SDS011;39794;55.782;37.452;2023-12-20T09:24:58;2.08;;;1.27;;
53881;SDS011;39794;55.782;37.452;2023-12-20T09:27:30;2.67;;;1.95;;
53881;SDS011;39794;55.782;37.452;2023-12-20T09:29:59;2.97;;;1.30;;
53881;SDS011;39794;55.782;37.452;2023-12-20T09:32:31;2.95;;;1.50;;
53881;SDS011;39794;55.782;37.452;2023-12-20T09:35:00;2.13;;;1.63;;
53881;SDS011;39794;55.782;37.452;2023-12-20T09:37:29;3.65;;;1.30;;
53881;SDS011;39794;55.782;37.452;2023-12-20T09:39:58;4.05;;;2.08;;
53881;SDS011;39794;55.782;37.452;2023-12-20T09:42:33;3.92;;;1.52;;
53881;SDS011;39794;55.782;37.452;2023-12-20T09:45:07;2.78;;;1.73;;
53881;SDS011;39794;55.782;37.452;2023-12-20T09:47:37;3.88;;;1.38;;
53881;SDS011;39794;55.782;37.452;2023-12-20T09:50:05;1.77;;;1.20;;
53881;SDS011;39794;55.782;37.452;2023-12-20T09:52:35;1.80;;;1.30;;
53881;SDS011;39794;55.782;37.452;2023-12-20T09:55:04;4.65;;;2.05;;
53881;SDS011;39794;55.782;37.452;2023-12-20T09:57:35;1.50;;;1.30;;
53881;SDS011;39794;55.782;37.452;2023-12-20T10:00:04;4.25;;;1.27;;
53881;SDS011;39794;55.782;37.452;2023-12-20T10:02:38;1.40;;;1.20;;
53881;SDS011;39794;55.782;37.452;2023-12-20T10:05:10;3.47;;;1.25;;
53881;SDS011;39794;55.782;37.452;2023-12-20T10:07:46;2.22;;;1.40;;
53881;SDS011;39794;55.782;37.452;2023-12-20T10:10:15;2.67;;;1.48;;
53881;SDS011;39794;55.782;37.452;2023-12-20T10:13:00;2.17;;;1.55;;
53881;SDS011;39794;55.782;37.452;2023-12-20T10:15:29;2.50;;;1.50;;
53881;SDS011;39794;55.782;37.452;2023-12-20T10:17:58;1.63;;;1.25;;
53881;SDS011;39794;55.782;37.452;2023-12-20T10:20:28;1.77;;;1.48;;
53881;SDS011;39794;55.782;37.452;2023-12-20T10:22:58;1.52;;;1.33;;
53881;SDS011;39794;55.782;37.452;2023-12-20T10:25:27;2.17;;;1.40;;
53881;SDS011;39794;55.782;37.452;2023-12-20T10:28:09;1.77;;;1.30;;
53881;SDS011;39794;55.782;37.452;2023-12-20T10:30:40;1.42;;;1.15;;
53881;SDS011;39794;55.782;37.452;2023-12-20T10:33:10;1.88;;;1.30;;
53881;SDS011;39794;55.782;37.452;2023-12-20T10:35:39;4.13;;;1.88;;
53881;SDS011;39794;55.782;37.452;2023-12-20T10:38:13;2.38;;;1.85;;
53881;SDS011;39794;55.782;37.452;2023-12-20T10:40:43;2.40;;;1.30;;
53881;SDS011;39794;55.782;37.452;2023-12-20T10:43:15;3.13;;;1.27;;
53881;SDS011;39794;55.782;37.452;2023-12-20T10:45:43;2.47;;;1.52;;
53881;SDS011;39794;55.782;37.452;2023-12-20T10:48:12;2.45;;;1.20;;
53881;SDS011;39794;55.782;37.452;2023-12-20T10:50:41;3.05;;;1.10;;
53881;SDS011;39794;55.782;37.452;2023-12-20T10:53:09;1.35;;;1.00;;
53881;SDS011;39794;55.782;37.452;2023-12-20T10:55:39;1.38;;;0.80;;
53881;SDS011;39794;55.782;37.452;2023-12-20T10:58:08;1.52;;;1.10;;
53881;SDS011;39794;55.782;37.452;2023-12-20T11:00:39;2.33;;;1.23;;
53881;SDS011;39794;55.782;37.452;2023-12-20T11:03:09;1.70;;;1.02;;
53881;SDS011;39794;55.782;37.452;2023-12-20T11:05:40;2.17;;;0.82;;
53881;SDS011;39794;55.782;37.452;2023-12-20T11:08:17;1.95;;;1.00;;
53881;SDS011;39794;55.782;37.452;2023-12-20T11:10:51;1.23;;;0.90;;
53881;SDS011;39794;55.782;37.452;2023-12-20T11:13:25;2.50;;;1.10;;
53881;SDS011;39794;55.782;37.452;2023-12-20T11:15:58;5.53;;;1.20;;
53881;SDS011;39794;55.782;37.452;2023-12-20T11:18:30;3.25;;;1.00;;
53881;SDS011;39794;55.782;37.452;2023-12-20T11:21:04;1.33;;;1.00;;
53881;SDS011;39794;55.782;37.452;2023-12-20T11:23:33;2.15;;;0.90;;
53881;SDS011;39794;55.782;37.452;2023-12-20T11:26:02;1.50;;;1.00;;
53881;SDS011;39794;55.782;37.452;2023-12-20T11:28:31;1.42;;;1.30;;
53881;SDS011;39794;55.782;37.452;2023-12-20T11:31:01;1.73;;;1.08;;
53881;SDS011;39794;55.782;37.452;2023-12-20T11:33:32;4.88;;;1.60;;
53881;SDS011;39794;55.782;37.452;2023-12-20T11:36:07;2.97;;;1.13;;
53881;SDS011;39794;55.782;37.452;2023-12-20T11:38:49;4.00;;;1.15;;
53881;SDS011;39794;55.782;37.452;2023-12-20T11:41:23;2.90;;;1.10;;
53881;SDS011;39794;55.782;37.452;2023-12-20T11:43:52;2.08;;;0.95;;
53881;SDS011;39794;55.782;37.452;2023-12-20T11:46:23;2.53;;;1.08;;
53881;SDS011;39794;55.782;37.452;2023-12-20T11:48:51;1.23;;;1.10;;
53881;SDS011;39794;55.782;37.452;2023-12-20T11:51:20;1.17;;;1.05;;
53881;SDS011;39794;55.782;37.452;2023-12-20T11:53:51;3.97;;;0.98;;
53881;SDS011;39794;55.782;37.452;2023-12-20T11:56:20;1.42;;;0.90;;
53881;SDS011;39794;55.782;37.452;2023-12-20T11:58:49;2.97;;;1.10;;
53881;SDS011;39794;55.782;37.452;2023-12-20T12:01:19;5.80;;;1.30;;
53881;SDS011;39794;55.782;37.452;2023-12-20T12:03:49;3.00;;;1.10;;
53881;SDS011;39794;55.782;37.452;2023-12-20T12:06:30;0.85;;;0.65;;
53881;SDS011;39794;55.782;37.452;2023-12-20T12:08:59;1.42;;;0.98;;
53881;SDS011;39794;55.782;37.452;2023-12-20T12:11:27;1.00;;;0.90;;
53881;SDS011;39794;55.782;37.452;2023-12-20T12:13:56;1.58;;;0.90;;
53881;SDS011;39794;55.782;37.452;2023-12-20T12:16:25;1.73;;;1.00;;
53881;SDS011;39794;55.782;37.452;2023-12-20T12:18:58;8.70;;;1.33;;
53881;SDS011;39794;55.782;37.452;2023-12-20T12:21:27;5.47;;;1.52;;
53881;SDS011;39794;55.782;37.452;2023-12-20T12:24:06;1.80;;;1.00;;
53881;SDS011;39794;55.782;37.452;2023-12-20T12:26:35;1.40;;;1.00;;
53881;SDS011;39794;55.782;37.452;2023-12-20T12:29:04;5.38;;;0.98;;
53881;SDS011;39794;55.782;37.452;2023-12-20T12:31:36;2.70;;;1.20;;
53881;SDS011;39794;55.782;37.452;2023-12-20T12:34:06;2.63;;;0.90;;
53881;SDS011;39794;55.782;37.452;2023-12-20T12:36:36;2.95;;;1.30;;
53881;SDS011;39794;55.782;37.452;2023-12-20T12:39:05;3.92;;;1.35;;
53881;SDS011;39794;55.782;37.452;2023-12-20T12:41:33;2.70;;;1.23;;
53881;SDS011;39794;55.782;37.452;2023-12-20T12:44:02;1.98;;;1.30;;
53881;SDS011;39794;55.782;37.452;2023-12-20T12:46:43;1.70;;;1.10;;
53881;SDS011;39794;55.782;37.452;2023-12-20T12:49:13;2.65;;;1.10;;
53881;SDS011;39794;55.782;37.452;2023-12-20T12:51:42;4.65;;;1.42;;
53881;SDS011;39794;55.782;37.452;2023-12-20T12:54:11;2.47;;;1.20;;
53881;SDS011;39794;55.782;37.452;2023-12-20T12:56:43;1.70;;;1.27;;
53881;SDS011;39794;55.782;37.452;2023-12-20T12:59:11;2.40;;;1.77;;
53881;SDS011;39794;55.782;37.452;2023-12-20T13:01:40;4.32;;;1.40;;
53881;SDS011;39794;55.782;37.452;2023-12-20T13:04:08;2.35;;;1.90;;
53881;SDS011;39794;55.782;37.452;2023-12-20T13:06:40;2.67;;;1.70;;
53881;SDS011;39794;55.782;37.452;2023-12-20T13:09:09;3.10;;;1.70;;
53881;SDS011;39794;55.782;37.452;2023-12-20T13:11:38;1.45;;;1.02;;
53881;SDS011;39794;55.782;37.452;2023-12-20T13:14:07;3.95;;;1.90;;
53881;SDS011;39794;55.782;37.452;2023-12-20T13:16:37;2.00;;;1.65;;
53881;SDS011;39794;55.782;37.452;2023-12-20T13:19:06;3.00;;;1.10;;
53881;SDS011;39794;55.782;37.452;2023-12-20T13:21:35;3.05;;;2.00;;
53881;SDS011;39794;55.782;37.452;2023-12-20T13:24:05;1.20;;;1.00;;
53881;SDS011;39794;55.782;37.452;2023-12-20T13:26:34;2.05;;;1.10;;
53881;SDS011;39794;55.782;37.452;2023-12-20T13:29:03;4.68;;;4.25;;
53881;SDS011;39794;55.782;37.452;2023-12-20T13:31:31;1.80;;;1.50;;
53881;SDS011;39794;55.782;37.452;2023-12-20T13:34:00;1.33;;;1.08;;
53881;SDS011;39794;55.782;37.452;2023-12-20T13:36:28;3.05;;;1.33;;
53881;SDS011;39794;55.782;37.452;2023-12-20T13:41:08;1.77;;;1.33;;
53881;SDS011;39794;55.782;37.452;2023-12-20T13:43:37;2.67;;;1.48;;
53881;SDS011;39794;55.782;37.452;2023-12-20T13:46:05;1.95;;;1.27;;
53881;SDS011;39794;55.782;37.452;2023-12-20T13:48:34;2.05;;;1.60;;
53881;SDS011;39794;55.782;37.452;2023-12-20T13:51:03;4.57;;;1.77;;
53881;SDS011;39794;55.782;37.452;2023-12-20T13:53:32;5.40;;;1.80;;
53881;SDS011;39794;55.782;37.452;2023-12-20T13:56:01;1.67;;;1.40;;
53881;SDS011;39794;55.782;37.452;2023-12-20T13:58:31;2.72;;;1.35;;
53881;SDS011;39794;55.782;37.452;2023-12-20T14:01:03;4.05;;;1.58;;
53881;SDS011;39794;55.782;37.452;2023-12-20T14:03:32;4.07;;;1.73;;
53881;SDS011;39794;55.782;37.452;2023-12-20T14:06:00;3.10;;;1.50;;
53881;SDS011;39794;55.782;37.452;2023-12-20T14:08:29;4.13;;;1.80;;
53881;SDS011;39794;55.782;37.452;2023-12-20T14:10:59;5.32;;;2.38;;
53881;SDS011;39794;55.782;37.452;2023-12-20T14:13:28;5.88;;;2.10;;
53881;SDS011;39794;55.782;37.452;2023-12-20T14:15:59;1.98;;;1.60;;
53881;SDS011;39794;55.782;37.452;2023-12-20T14:18:28;4.57;;;1.95;;
53881;SDS011;39794;55.782;37.452;2023-12-20T14:20:57;4.00;;;1.95;;
53881;SDS011;39794;55.782;37.452;2023-12-20T14:23:26;2.22;;;1.50;;
53881;SDS011;39794;55.782;37.452;2023-12-20T14:25:54;3.90;;;1.90;;
53881;SDS011;39794;55.782;37.452;2023-12-20T14:28:25;3.03;;;1.80;;
53881;SDS011;39794;55.782;37.452;2023-12-20T14:30:54;3.25;;;1.67;;
53881;SDS011;39794;55.782;37.452;2023-12-20T14:33:24;4.55;;;2.25;;
53881;SDS011;39794;55.782;37.452;2023-12-20T14:35:53;3.08;;;1.65;;
53881;SDS011;39794;55.782;37.452;2023-12-20T14:38:22;3.60;;;1.75;;
53881;SDS011;39794;55.782;37.452;2023-12-20T14:40:50;3.70;;;1.60;;
53881;SDS011;39794;55.782;37.452;2023-12-20T14:43:18;2.60;;;1.67;;
53881;SDS011;39794;55.782;37.452;2023-12-20T14:45:49;2.15;;;1.92;;
53881;SDS011;39794;55.782;37.452;2023-12-20T14:48:18;5.20;;;1.63;;
53881;SDS011;39794;55.782;37.452;2023-12-20T14:50:49;5.60;;;1.20;;